sensor_id;sensor_type;location;lat;lon;timestamp;P1;durP1;ratioP1;P2;durP2;ratioP2
46777;SDS011;32536;47.128;8.746;2022-12-13T00:01:38;2.67;;;1.73;;
46777;SDS011;32536;47.128;8.746;2022-12-13T00:04:06;2.17;;;1.83;;
46777;SDS011;32536;47.128;8.746;2022-12-13T00:06:34;2.47;;;1.85;;
46777;SDS011;32536;47.128;8.746;2022-12-13T00:09:02;3.35;;;2.75;;
46777;SDS011;32536;47.128;8.746;2022-12-13T00:11:30;2.78;;;1.42;;
46777;SDS011;32536;47.128;8.746;2022-12-13T00:16:48;2.08;;;1.85;;
46777;SDS011;32536;47.128;8.746;2022-12-13T00:19:15;2.03;;;1.83;;
46777;SDS011;32536;47.128;8.746;2022-12-13T00:21:43;3.72;;;2.00;;
46777;SDS011;32536;47.128;8.746;2022-12-13T00:24:10;3.13;;;1.85;;
46777;SDS011;32536;47.128;8.746;2022-12-13T00:26:37;2.70;;;1.88;;
46777;SDS011;32536;47.128;8.746;2022-12-13T00:29:04;1.85;;;1.50;;
46777;SDS011;32536;47.128;8.746;2022-12-13T00:31:33;2.15;;;1.52;;
46777;SDS011;32536;47.128;8.746;2022-12-13T00:34:01;2.90;;;1.88;;
46777;SDS011;32536;47.128;8.746;2022-12-13T00:36:27;2.15;;;1.85;;
46777;SDS011;32536;47.128;8.746;2022-12-13T00:38:54;2.35;;;1.73;;
46777;SDS011;32536;47.128;8.746;2022-12-13T00:41:29;3.13;;;2.53;;
46777;SDS011;32536;47.128;8.746;2022-12-13T00:43:59;1.70;;;1.35;;
46777;SDS011;32536;47.128;8.746;2022-12-13T00:46:27;1.65;;;1.45;;
46777;SDS011;32536;47.128;8.746;2022-12-13T00:48:55;3.38;;;1.65;;
46777;SDS011;32536;47.128;8.746;2022-12-13T00:51:24;1.98;;;1.42;;
46777;SDS011;32536;47.128;8.746;2022-12-13T00:53:55;2.22;;;1.55;;
46777;SDS011;32536;47.128;8.746;2022-12-13T00:56:23;2.28;;;1.75;;
46777;SDS011;32536;47.128;8.746;2022-12-13T00:58:53;2.58;;;1.83;;
46777;SDS011;32536;47.128;8.746;2022-12-13T01:01:21;3.67;;;1.77;;
46777;SDS011;32536;47.128;8.746;2022-12-13T01:03:55;2.17;;;1.65;;
46777;SDS011;32536;47.128;8.746;2022-12-13T01:06:36;2.38;;;1.35;;
46777;SDS011;32536;47.128;8.746;2022-12-13T01:09:07;3.22;;;1.90;;
46777;SDS011;32536;47.128;8.746;2022-12-13T01:11:42;5.28;;;2.42;;
46777;SDS011;32536;47.128;8.746;2022-12-13T01:14:26;3.40;;;2.53;;
46777;SDS011;32536;47.128;8.746;2022-12-13T01:16:53;2.78;;;1.88;;
46777;SDS011;32536;47.128;8.746;2022-12-13T01:19:23;1.63;;;1.52;;
46777;SDS011;32536;47.128;8.746;2022-12-13T01:21:56;2.33;;;1.38;;
46777;SDS011;32536;47.128;8.746;2022-12-13T01:24:26;2.38;;;1.65;;
46777;SDS011;32536;47.128;8.746;2022-12-13T01:26:54;2.83;;;1.98;;
46777;SDS011;32536;47.128;8.746;2022-12-13T01:29:21;5.22;;;2.05;;
46777;SDS011;32536;47.128;8.746;2022-12-13T01:31:48;3.33;;;1.95;;
46777;SDS011;32536;47.128;8.746;2022-12-13T01:34:17;2.20;;;1.63;;
46777;SDS011;32536;47.128;8.746;2022-12-13T01:36:45;2.33;;;1.73;;
46777;SDS011;32536;47.128;8.746;2022-12-13T01:39:14;2.78;;;2.58;;
46777;SDS011;32536;47.128;8.746;2022-12-13T01:41:48;1.92;;;1.50;;
46777;SDS011;32536;47.128;8.746;2022-12-13T01:47:23;3.28;;;1.85;;
46777;SDS011;32536;47.128;8.746;2022-12-13T01:50:04;1.30;;;1.05;;
46777;SDS011;32536;47.128;8.746;2022-12-13T01:52:37;2.78;;;2.58;;
46777;SDS011;32536;47.128;8.746;2022-12-13T01:55:06;3.13;;;2.90;;
46777;SDS011;32536;47.128;8.746;2022-12-13T01:57:37;1.67;;;1.48;;
46777;SDS011;32536;47.128;8.746;2022-12-13T02:00:08;1.90;;;1.40;;
46777;SDS011;32536;47.128;8.746;2022-12-13T02:02:35;2.80;;;2.60;;
46777;SDS011;32536;47.128;8.746;2022-12-13T02:05:06;2.35;;;1.70;;
46777;SDS011;32536;47.128;8.746;2022-12-13T02:07:37;1.80;;;1.67;;
46777;SDS011;32536;47.128;8.746;2022-12-13T02:10:07;1.60;;;1.30;;
46777;SDS011;32536;47.128;8.746;2022-12-13T02:12:35;2.53;;;2.22;;
46777;SDS011;32536;47.128;8.746;2022-12-13T02:15:04;1.98;;;1.48;;
46777;SDS011;32536;47.128;8.746;2022-12-13T02:35:27;1.65;;;1.55;;
46777;SDS011;32536;47.128;8.746;2022-12-13T02:40:40;1.80;;;1.63;;
46777;SDS011;32536;47.128;8.746;2022-12-13T02:43:56;2.88;;;1.58;;
46777;SDS011;32536;47.128;8.746;2022-12-13T02:46:51;2.15;;;1.70;;
46777;SDS011;32536;47.128;8.746;2022-12-13T02:49:23;2.47;;;2.03;;
46777;SDS011;32536;47.128;8.746;2022-12-13T02:51:54;2.55;;;1.58;;
46777;SDS011;32536;47.128;8.746;2022-12-13T02:54:23;1.73;;;1.63;;
46777;SDS011;32536;47.128;8.746;2022-12-13T02:56:56;1.92;;;1.77;;
46777;SDS011;32536;47.128;8.746;2022-12-13T02:59:33;1.95;;;1.75;;
46777;SDS011;32536;47.128;8.746;2022-12-13T03:11:13;3.25;;;2.97;;
46777;SDS011;32536;47.128;8.746;2022-12-13T03:13:47;2.40;;;2.20;;
46777;SDS011;32536;47.128;8.746;2022-12-13T03:17:00;1.55;;;1.45;;
46777;SDS011;32536;47.128;8.746;2022-12-13T03:19:30;1.98;;;1.77;;
46777;SDS011;32536;47.128;8.746;2022-12-13T03:21:57;1.25;;;1.15;;
46777;SDS011;32536;47.128;8.746;2022-12-13T03:24:24;2.40;;;2.22;;
46777;SDS011;32536;47.128;8.746;2022-12-13T03:26:50;1.48;;;1.27;;
46777;SDS011;32536;47.128;8.746;2022-12-13T03:29:18;1.95;;;1.75;;
46777;SDS011;32536;47.128;8.746;2022-12-13T03:31:44;1.42;;;1.20;;
46777;SDS011;32536;47.128;8.746;2022-12-13T03:34:11;2.25;;;1.48;;
46777;SDS011;32536;47.128;8.746;2022-12-13T03:36:38;1.88;;;1.42;;
46777;SDS011;32536;47.128;8.746;2022-12-13T03:39:04;1.98;;;1.83;;
46777;SDS011;32536;47.128;8.746;2022-12-13T03:41:31;2.38;;;2.17;;
46777;SDS011;32536;47.128;8.746;2022-12-13T03:43:58;1.75;;;1.42;;
46777;SDS011;32536;47.128;8.746;2022-12-13T03:46:29;1.40;;;1.30;;
46777;SDS011;32536;47.128;8.746;2022-12-13T03:48:56;2.72;;;2.53;;
46777;SDS011;32536;47.128;8.746;2022-12-13T03:51:22;1.98;;;1.80;;
46777;SDS011;32536;47.128;8.746;2022-12-13T03:53:49;2.47;;;2.30;;
46777;SDS011;32536;47.128;8.746;2022-12-13T03:56:16;2.83;;;2.63;;
46777;SDS011;32536;47.128;8.746;2022-12-13T03:58:43;2.65;;;2.42;;
46777;SDS011;32536;47.128;8.746;2022-12-13T04:01:11;3.20;;;2.97;;
46777;SDS011;32536;47.128;8.746;2022-12-13T04:03:41;2.25;;;2.05;;
46777;SDS011;32536;47.128;8.746;2022-12-13T04:06:11;3.13;;;2.83;;
46777;SDS011;32536;47.128;8.746;2022-12-13T04:08:38;2.20;;;2.05;;
46777;SDS011;32536;47.128;8.746;2022-12-13T04:11:06;1.55;;;1.20;;
46777;SDS011;32536;47.128;8.746;2022-12-13T04:13:53;2.00;;;1.83;;
46777;SDS011;32536;47.128;8.746;2022-12-13T04:16:21;1.98;;;1.52;;
46777;SDS011;32536;47.128;8.746;2022-12-13T04:18:49;1.60;;;1.50;;
46777;SDS011;32536;47.128;8.746;2022-12-13T04:21:16;2.03;;;1.77;;
46777;SDS011;32536;47.128;8.746;2022-12-13T04:23:42;2.15;;;1.83;;
46777;SDS011;32536;47.128;8.746;2022-12-13T04:26:09;3.05;;;1.65;;
46777;SDS011;32536;47.128;8.746;2022-12-13T04:28:36;2.20;;;2.00;;
46777;SDS011;32536;47.128;8.746;2022-12-13T04:31:03;2.70;;;2.50;;
46777;SDS011;32536;47.128;8.746;2022-12-13T04:33:30;2.03;;;1.85;;
46777;SDS011;32536;47.128;8.746;2022-12-13T04:35:57;2.50;;;1.73;;
46777;SDS011;32536;47.128;8.746;2022-12-13T04:38:24;2.42;;;1.75;;
46777;SDS011;32536;47.128;8.746;2022-12-13T04:40:50;2.00;;;1.73;;
46777;SDS011;32536;47.128;8.746;2022-12-13T04:43:17;1.92;;;1.67;;
46777;SDS011;32536;47.128;8.746;2022-12-13T04:45:44;2.20;;;1.77;;
46777;SDS011;32536;47.128;8.746;2022-12-13T04:48:11;2.35;;;1.73;;
46777;SDS011;32536;47.128;8.746;2022-12-13T04:50:38;2.22;;;1.27;;
46777;SDS011;32536;47.128;8.746;2022-12-13T04:53:05;2.20;;;2.00;;
46777;SDS011;32536;47.128;8.746;2022-12-13T04:55:31;2.00;;;1.77;;
46777;SDS011;32536;47.128;8.746;2022-12-13T04:57:58;1.92;;;1.60;;
46777;SDS011;32536;47.128;8.746;2022-12-13T05:00:25;2.05;;;1.70;;
46777;SDS011;32536;47.128;8.746;2022-12-13T05:02:51;2.63;;;2.10;;
46777;SDS011;32536;47.128;8.746;2022-12-13T05:05:18;2.47;;;1.98;;
46777;SDS011;32536;47.128;8.746;2022-12-13T05:07:45;2.22;;;1.77;;
46777;SDS011;32536;47.128;8.746;2022-12-13T05:10:12;2.58;;;1.85;;
46777;SDS011;32536;47.128;8.746;2022-12-13T05:12:39;2.28;;;1.58;;
46777;SDS011;32536;47.128;8.746;2022-12-13T05:15:06;2.75;;;2.55;;
46777;SDS011;32536;47.128;8.746;2022-12-13T05:17:33;1.77;;;1.42;;
46777;SDS011;32536;47.128;8.746;2022-12-13T05:20:01;1.90;;;1.40;;
46777;SDS011;32536;47.128;8.746;2022-12-13T05:22:28;2.03;;;1.42;;
46777;SDS011;32536;47.128;8.746;2022-12-13T05:24:54;2.83;;;2.55;;
46777;SDS011;32536;47.128;8.746;2022-12-13T05:27:21;1.95;;;1.42;;
46777;SDS011;32536;47.128;8.746;2022-12-13T05:29:48;2.53;;;2.33;;
46777;SDS011;32536;47.128;8.746;2022-12-13T05:32:15;2.38;;;2.17;;
46777;SDS011;32536;47.128;8.746;2022-12-13T05:34:41;3.03;;;2.83;;
46777;SDS011;32536;47.128;8.746;2022-12-13T05:37:08;1.65;;;1.48;;
46777;SDS011;32536;47.128;8.746;2022-12-13T05:39:35;2.70;;;2.50;;
46777;SDS011;32536;47.128;8.746;2022-12-13T05:42:01;2.42;;;2.22;;
46777;SDS011;32536;47.128;8.746;2022-12-13T05:44:31;1.95;;;1.85;;
46777;SDS011;32536;47.128;8.746;2022-12-13T05:46:58;3.47;;;2.17;;
46777;SDS011;32536;47.128;8.746;2022-12-13T05:49:25;3.88;;;1.70;;
46777;SDS011;32536;47.128;8.746;2022-12-13T05:51:52;2.42;;;1.95;;
46777;SDS011;32536;47.128;8.746;2022-12-13T05:54:19;2.45;;;2.22;;
46777;SDS011;32536;47.128;8.746;2022-12-13T05:56:46;2.83;;;2.63;;
46777;SDS011;32536;47.128;8.746;2022-12-13T05:59:12;3.20;;;2.95;;
46777;SDS011;32536;47.128;8.746;2022-12-13T06:01:39;2.60;;;2.40;;
46777;SDS011;32536;47.128;8.746;2022-12-13T06:04:06;2.58;;;2.38;;
46777;SDS011;32536;47.128;8.746;2022-12-13T06:06:33;2.20;;;2.00;;
46777;SDS011;32536;47.128;8.746;2022-12-13T06:08:59;2.63;;;2.40;;
46777;SDS011;32536;47.128;8.746;2022-12-13T06:11:26;2.50;;;1.98;;
46777;SDS011;32536;47.128;8.746;2022-12-13T06:13:53;2.53;;;2.33;;
46777;SDS011;32536;47.128;8.746;2022-12-13T06:16:20;2.38;;;2.17;;
46777;SDS011;32536;47.128;8.746;2022-12-13T06:18:47;2.17;;;1.58;;
46777;SDS011;32536;47.128;8.746;2022-12-13T06:21:13;4.18;;;3.05;;
46777;SDS011;32536;47.128;8.746;2022-12-13T06:23:40;3.83;;;3.53;;
46777;SDS011;32536;47.128;8.746;2022-12-13T06:26:07;2.13;;;1.63;;
46777;SDS011;32536;47.128;8.746;2022-12-13T06:28:34;2.15;;;1.92;;
46777;SDS011;32536;47.128;8.746;2022-12-13T06:31:02;2.03;;;1.45;;
46777;SDS011;32536;47.128;8.746;2022-12-13T06:33:29;2.90;;;1.40;;
46777;SDS011;32536;47.128;8.746;2022-12-13T06:36:01;2.55;;;2.33;;
46777;SDS011;32536;47.128;8.746;2022-12-13T06:38:28;2.53;;;2.30;;
46777;SDS011;32536;47.128;8.746;2022-12-13T06:41:04;1.40;;;1.30;;
46777;SDS011;32536;47.128;8.746;2022-12-13T06:43:36;1.20;;;1.02;;
46777;SDS011;32536;47.128;8.746;2022-12-13T06:46:06;2.75;;;2.55;;
46777;SDS011;32536;47.128;8.746;2022-12-13T06:48:33;4.00;;;3.70;;
46777;SDS011;32536;47.128;8.746;2022-12-13T06:51:02;2.90;;;2.30;;
46777;SDS011;32536;47.128;8.746;2022-12-13T06:53:31;1.35;;;1.20;;
46777;SDS011;32536;47.128;8.746;2022-12-13T06:56:04;2.00;;;1.80;;
46777;SDS011;32536;47.128;8.746;2022-12-13T06:58:36;2.88;;;2.67;;
46777;SDS011;32536;47.128;8.746;2022-12-13T07:01:05;3.00;;;2.72;;
46777;SDS011;32536;47.128;8.746;2022-12-13T07:03:36;2.00;;;1.88;;
46777;SDS011;32536;47.128;8.746;2022-12-13T07:06:05;2.15;;;1.80;;
46777;SDS011;32536;47.128;8.746;2022-12-13T07:08:39;1.70;;;1.13;;
46777;SDS011;32536;47.128;8.746;2022-12-13T07:11:12;2.45;;;2.25;;
46777;SDS011;32536;47.128;8.746;2022-12-13T07:13:40;1.95;;;1.60;;
46777;SDS011;32536;47.128;8.746;2022-12-13T07:16:08;2.97;;;2.67;;
46777;SDS011;32536;47.128;8.746;2022-12-13T07:18:36;1.92;;;1.70;;
46777;SDS011;32536;47.128;8.746;2022-12-13T07:21:04;2.33;;;1.33;;
46777;SDS011;32536;47.128;8.746;2022-12-13T07:23:37;2.17;;;1.67;;
46777;SDS011;32536;47.128;8.746;2022-12-13T07:26:05;2.63;;;2.42;;
46777;SDS011;32536;47.128;8.746;2022-12-13T07:28:36;1.60;;;1.13;;
46777;SDS011;32536;47.128;8.746;2022-12-13T07:31:05;1.88;;;1.35;;
46777;SDS011;32536;47.128;8.746;2022-12-13T07:33:34;1.83;;;1.20;;
46777;SDS011;32536;47.128;8.746;2022-12-13T07:36:02;2.90;;;2.67;;
46777;SDS011;32536;47.128;8.746;2022-12-13T07:38:38;2.30;;;1.27;;
46777;SDS011;32536;47.128;8.746;2022-12-13T07:41:05;1.77;;;0.95;;
46777;SDS011;32536;47.128;8.746;2022-12-13T07:43:32;3.55;;;2.92;;
46777;SDS011;32536;47.128;8.746;2022-12-13T07:46:01;2.53;;;1.20;;
46777;SDS011;32536;47.128;8.746;2022-12-13T07:48:32;2.40;;;1.77;;
46777;SDS011;32536;47.128;8.746;2022-12-13T07:51:00;3.03;;;2.63;;
46777;SDS011;32536;47.128;8.746;2022-12-13T07:53:29;2.25;;;1.58;;
46777;SDS011;32536;47.128;8.746;2022-12-13T07:55:59;3.08;;;2.78;;
46777;SDS011;32536;47.128;8.746;2022-12-13T07:58:28;3.67;;;2.10;;
46777;SDS011;32536;47.128;8.746;2022-12-13T08:00:58;6.30;;;2.63;;
46777;SDS011;32536;47.128;8.746;2022-12-13T08:03:27;5.43;;;2.13;;
46777;SDS011;32536;47.128;8.746;2022-12-13T08:06:01;8.18;;;2.53;;
46777;SDS011;32536;47.128;8.746;2022-12-13T08:08:33;4.28;;;1.80;;
46777;SDS011;32536;47.128;8.746;2022-12-13T08:11:04;5.47;;;4.20;;
46777;SDS011;32536;47.128;8.746;2022-12-13T08:13:34;2.05;;;1.40;;
46777;SDS011;32536;47.128;8.746;2022-12-13T08:16:02;4.03;;;2.58;;
46777;SDS011;32536;47.128;8.746;2022-12-13T08:18:32;3.92;;;1.80;;
46777;SDS011;32536;47.128;8.746;2022-12-13T08:20:59;3.85;;;2.45;;
46777;SDS011;32536;47.128;8.746;2022-12-13T08:23:31;3.90;;;2.22;;
46777;SDS011;32536;47.128;8.746;2022-12-13T08:25:59;2.17;;;1.58;;
46777;SDS011;32536;47.128;8.746;2022-12-13T08:28:28;7.50;;;3.45;;
46777;SDS011;32536;47.128;8.746;2022-12-13T08:31:09;2.72;;;1.92;;
46777;SDS011;32536;47.128;8.746;2022-12-13T08:33:38;2.78;;;2.13;;
46777;SDS011;32536;47.128;8.746;2022-12-13T08:36:09;4.28;;;2.17;;
46777;SDS011;32536;47.128;8.746;2022-12-13T08:38:37;3.92;;;1.88;;
46777;SDS011;32536;47.128;8.746;2022-12-13T08:41:04;3.33;;;1.95;;
46777;SDS011;32536;47.128;8.746;2022-12-13T08:43:31;3.97;;;2.50;;
46777;SDS011;32536;47.128;8.746;2022-12-13T08:45:58;2.67;;;1.52;;
46777;SDS011;32536;47.128;8.746;2022-12-13T08:48:25;3.20;;;1.65;;
46777;SDS011;32536;47.128;8.746;2022-12-13T08:50:53;3.25;;;2.67;;
46777;SDS011;32536;47.128;8.746;2022-12-13T08:53:23;3.53;;;3.20;;
46777;SDS011;32536;47.128;8.746;2022-12-13T08:55:51;2.42;;;1.33;;
46777;SDS011;32536;47.128;8.746;2022-12-13T08:58:17;2.50;;;1.73;;
46777;SDS011;32536;47.128;8.746;2022-12-13T09:00:44;3.30;;;1.70;;
46777;SDS011;32536;47.128;8.746;2022-12-13T09:03:11;3.15;;;1.20;;
46777;SDS011;32536;47.128;8.746;2022-12-13T09:05:37;2.78;;;1.85;;
46777;SDS011;32536;47.128;8.746;2022-12-13T09:08:04;3.20;;;1.63;;
46777;SDS011;32536;47.128;8.746;2022-12-13T09:10:31;3.40;;;1.52;;
46777;SDS011;32536;47.128;8.746;2022-12-13T09:12:58;3.28;;;2.95;;
46777;SDS011;32536;47.128;8.746;2022-12-13T09:15:28;4.53;;;1.95;;
46777;SDS011;32536;47.128;8.746;2022-12-13T09:17:56;2.63;;;1.25;;
46777;SDS011;32536;47.128;8.746;2022-12-13T09:20:24;2.97;;;1.83;;
46777;SDS011;32536;47.128;8.746;2022-12-13T09:22:51;3.75;;;2.75;;
46777;SDS011;32536;47.128;8.746;2022-12-13T09:25:19;3.28;;;2.13;;
46777;SDS011;32536;47.128;8.746;2022-12-13T09:27:45;3.25;;;2.65;;
46777;SDS011;32536;47.128;8.746;2022-12-13T09:30:14;2.50;;;1.42;;
46777;SDS011;32536;47.128;8.746;2022-12-13T09:32:41;3.53;;;1.95;;
46777;SDS011;32536;47.128;8.746;2022-12-13T09:35:14;4.07;;;3.13;;
46777;SDS011;32536;47.128;8.746;2022-12-13T09:37:41;3.53;;;1.92;;
46777;SDS011;32536;47.128;8.746;2022-12-13T09:40:09;3.15;;;2.40;;
46777;SDS011;32536;47.128;8.746;2022-12-13T09:42:46;3.63;;;1.80;;
46777;SDS011;32536;47.128;8.746;2022-12-13T09:45:17;2.30;;;1.23;;
46777;SDS011;32536;47.128;8.746;2022-12-13T09:47:44;2.90;;;1.45;;
46777;SDS011;32536;47.128;8.746;2022-12-13T09:50:14;2.95;;;2.60;;
46777;SDS011;32536;47.128;8.746;2022-12-13T09:52:53;3.97;;;3.08;;
46777;SDS011;32536;47.128;8.746;2022-12-13T09:55:23;3.17;;;2.05;;
46777;SDS011;32536;47.128;8.746;2022-12-13T09:57:53;4.13;;;1.50;;
46777;SDS011;32536;47.128;8.746;2022-12-13T10:00:22;2.65;;;1.75;;
46777;SDS011;32536;47.128;8.746;2022-12-13T10:02:56;3.75;;;2.47;;
46777;SDS011;32536;47.128;8.746;2022-12-13T10:07:58;3.17;;;2.88;;
46777;SDS011;32536;47.128;8.746;2022-12-13T10:10:30;2.55;;;2.05;;
46777;SDS011;32536;47.128;8.746;2022-12-13T10:13:02;1.83;;;1.25;;
46777;SDS011;32536;47.128;8.746;2022-12-13T10:15:57;2.58;;;1.55;;
46777;SDS011;32536;47.128;8.746;2022-12-13T10:18:42;3.15;;;2.30;;
46777;SDS011;32536;47.128;8.746;2022-12-13T10:21:12;4.10;;;3.70;;
46777;SDS011;32536;47.128;8.746;2022-12-13T10:23:43;2.58;;;1.80;;
46777;SDS011;32536;47.128;8.746;2022-12-13T10:26:10;4.93;;;3.53;;
46777;SDS011;32536;47.128;8.746;2022-12-13T10:28:39;4.05;;;3.28;;
46777;SDS011;32536;47.128;8.746;2022-12-13T10:31:07;3.38;;;2.05;;
46777;SDS011;32536;47.128;8.746;2022-12-13T10:33:49;4.07;;;2.00;;
46777;SDS011;32536;47.128;8.746;2022-12-13T10:36:31;3.72;;;2.17;;
46777;SDS011;32536;47.128;8.746;2022-12-13T10:39:01;3.53;;;2.63;;
46777;SDS011;32536;47.128;8.746;2022-12-13T10:41:35;4.70;;;2.85;;
46777;SDS011;32536;47.128;8.746;2022-12-13T10:46:46;4.07;;;2.50;;
46777;SDS011;32536;47.128;8.746;2022-12-13T10:49:23;3.47;;;1.88;;
46777;SDS011;32536;47.128;8.746;2022-12-13T10:51:55;3.75;;;2.13;;
46777;SDS011;32536;47.128;8.746;2022-12-13T10:54:28;4.55;;;2.17;;
46777;SDS011;32536;47.128;8.746;2022-12-13T10:56:58;4.30;;;2.65;;
46777;SDS011;32536;47.128;8.746;2022-12-13T10:59:35;4.97;;;3.30;;
46777;SDS011;32536;47.128;8.746;2022-12-13T11:04:59;3.70;;;2.53;;
46777;SDS011;32536;47.128;8.746;2022-12-13T11:07:46;4.25;;;2.45;;
46777;SDS011;32536;47.128;8.746;2022-12-13T11:10:19;4.97;;;3.13;;
46777;SDS011;32536;47.128;8.746;2022-12-13T11:12:48;3.55;;;2.22;;
46777;SDS011;32536;47.128;8.746;2022-12-13T11:15:20;4.70;;;2.75;;
46777;SDS011;32536;47.128;8.746;2022-12-13T11:17:51;4.55;;;2.97;;
46777;SDS011;32536;47.128;8.746;2022-12-13T11:20:23;5.03;;;3.35;;
46777;SDS011;32536;47.128;8.746;2022-12-13T11:25:59;4.45;;;3.03;;
46777;SDS011;32536;47.128;8.746;2022-12-13T11:28:44;3.75;;;2.55;;
46777;SDS011;32536;47.128;8.746;2022-12-13T11:37:23;6.20;;;3.45;;
46777;SDS011;32536;47.128;8.746;2022-12-13T11:40:19;2.83;;;1.55;;
46777;SDS011;32536;47.128;8.746;2022-12-13T11:43:11;6.80;;;3.92;;
46777;SDS011;32536;47.128;8.746;2022-12-13T11:45:57;5.70;;;3.67;;
46777;SDS011;32536;47.128;8.746;2022-12-13T11:51:25;5.43;;;3.80;;
46777;SDS011;32536;47.128;8.746;2022-12-13T11:54:07;5.88;;;4.15;;
46777;SDS011;32536;47.128;8.746;2022-12-13T11:56:59;5.40;;;3.10;;
46777;SDS011;32536;47.128;8.746;2022-12-13T11:59:35;6.53;;;4.13;;
46777;SDS011;32536;47.128;8.746;2022-12-13T12:08:15;3.58;;;2.60;;
46777;SDS011;32536;47.128;8.746;2022-12-13T12:10:55;5.75;;;3.75;;
46777;SDS011;32536;47.128;8.746;2022-12-13T12:13:35;5.88;;;3.35;;
46777;SDS011;32536;47.128;8.746;2022-12-13T12:18:50;5.15;;;3.85;;
46777;SDS011;32536;47.128;8.746;2022-12-13T12:35:24;4.95;;;2.42;;
46777;SDS011;32536;47.128;8.746;2022-12-13T12:38:18;4.53;;;2.97;;
46777;SDS011;32536;47.128;8.746;2022-12-13T12:44:12;5.43;;;4.07;;
46777;SDS011;32536;47.128;8.746;2022-12-13T12:52:35;4.43;;;2.15;;
46777;SDS011;32536;47.128;8.746;2022-12-13T12:58:22;6.90;;;4.68;;
46777;SDS011;32536;47.128;8.746;2022-12-13T13:04:11;5.50;;;3.35;;
46777;SDS011;32536;47.128;8.746;2022-12-13T13:06:45;3.53;;;2.22;;
46777;SDS011;32536;47.128;8.746;2022-12-13T13:09:21;6.45;;;3.30;;
46777;SDS011;32536;47.128;8.746;2022-12-13T13:11:48;6.72;;;3.20;;
46777;SDS011;32536;47.128;8.746;2022-12-13T13:16:57;6.35;;;3.35;;
46777;SDS011;32536;47.128;8.746;2022-12-13T13:21:58;6.82;;;4.38;;
46777;SDS011;32536;47.128;8.746;2022-12-13T13:24:29;7.25;;;3.67;;
46777;SDS011;32536;47.128;8.746;2022-12-13T13:29:35;7.53;;;4.60;;
46777;SDS011;32536;47.128;8.746;2022-12-13T13:32:23;6.10;;;3.22;;
46777;SDS011;32536;47.128;8.746;2022-12-13T13:34:51;5.70;;;3.80;;
46777;SDS011;32536;47.128;8.746;2022-12-13T14:00:16;6.85;;;3.17;;
46777;SDS011;32536;47.128;8.746;2022-12-13T14:08:31;5.97;;;3.33;;
46777;SDS011;32536;47.128;8.746;2022-12-13T14:20:54;5.63;;;3.85;;
46777;SDS011;32536;47.128;8.746;2022-12-13T14:27:31;4.00;;;2.80;;
46777;SDS011;32536;47.128;8.746;2022-12-13T14:30:19;4.68;;;3.38;;
46777;SDS011;32536;47.128;8.746;2022-12-13T14:32:49;4.43;;;2.58;;
46777;SDS011;32536;47.128;8.746;2022-12-13T14:35:21;4.82;;;2.65;;
46777;SDS011;32536;47.128;8.746;2022-12-13T14:38:04;6.43;;;4.05;;
46777;SDS011;32536;47.128;8.746;2022-12-13T14:40:49;4.03;;;2.50;;
46777;SDS011;32536;47.128;8.746;2022-12-13T14:43:21;3.90;;;3.10;;
46777;SDS011;32536;47.128;8.746;2022-12-13T14:45:57;5.25;;;4.00;;
46777;SDS011;32536;47.128;8.746;2022-12-13T14:48:29;4.32;;;2.85;;
46777;SDS011;32536;47.128;8.746;2022-12-13T14:51:02;6.07;;;4.45;;
46777;SDS011;32536;47.128;8.746;2022-12-13T14:53:32;5.90;;;3.67;;
46777;SDS011;32536;47.128;8.746;2022-12-13T14:56:05;6.15;;;4.72;;
46777;SDS011;32536;47.128;8.746;2022-12-13T14:58:57;5.20;;;3.70;;
46777;SDS011;32536;47.128;8.746;2022-12-13T15:01:33;5.80;;;3.95;;
46777;SDS011;32536;47.128;8.746;2022-12-13T15:09:52;6.25;;;5.18;;
46777;SDS011;32536;47.128;8.746;2022-12-13T15:12:28;6.25;;;3.80;;
46777;SDS011;32536;47.128;8.746;2022-12-13T15:18:17;5.00;;;3.67;;
46777;SDS011;32536;47.128;8.746;2022-12-13T15:20:55;5.20;;;3.63;;
46777;SDS011;32536;47.128;8.746;2022-12-13T15:23:30;5.25;;;3.17;;
46777;SDS011;32536;47.128;8.746;2022-12-13T15:26:07;4.22;;;2.25;;
46777;SDS011;32536;47.128;8.746;2022-12-13T15:28:44;7.18;;;2.80;;
46777;SDS011;32536;47.128;8.746;2022-12-13T15:31:14;6.93;;;3.92;;
46777;SDS011;32536;47.128;8.746;2022-12-13T15:33:41;5.63;;;4.03;;
46777;SDS011;32536;47.128;8.746;2022-12-13T15:36:09;4.40;;;3.20;;
46777;SDS011;32536;47.128;8.746;2022-12-13T15:41:21;3.95;;;2.58;;
46777;SDS011;32536;47.128;8.746;2022-12-13T15:44:03;5.47;;;3.75;;
46777;SDS011;32536;47.128;8.746;2022-12-13T15:47:06;7.38;;;4.03;;
46777;SDS011;32536;47.128;8.746;2022-12-13T15:49:39;7.13;;;5.65;;
46777;SDS011;32536;47.128;8.746;2022-12-13T15:57:31;5.00;;;2.78;;
46777;SDS011;32536;47.128;8.746;2022-12-13T16:02:31;6.32;;;4.32;;
46777;SDS011;32536;47.128;8.746;2022-12-13T16:05:06;5.15;;;3.10;;
46777;SDS011;32536;47.128;8.746;2022-12-13T16:07:41;4.82;;;2.88;;
46777;SDS011;32536;47.128;8.746;2022-12-13T16:10:15;4.25;;;2.28;;
46777;SDS011;32536;47.128;8.746;2022-12-13T16:12:48;5.32;;;3.85;;
46777;SDS011;32536;47.128;8.746;2022-12-13T16:15:25;5.10;;;4.13;;
46777;SDS011;32536;47.128;8.746;2022-12-13T16:18:04;5.05;;;3.38;;
46777;SDS011;32536;47.128;8.746;2022-12-13T16:20:39;5.55;;;4.25;;
46777;SDS011;32536;47.128;8.746;2022-12-13T16:23:08;6.82;;;4.03;;
46777;SDS011;32536;47.128;8.746;2022-12-13T16:25:35;6.55;;;4.00;;
46777;SDS011;32536;47.128;8.746;2022-12-13T16:28:02;8.27;;;5.57;;
46777;SDS011;32536;47.128;8.746;2022-12-13T16:33:21;5.82;;;2.78;;
46777;SDS011;32536;47.128;8.746;2022-12-13T16:35:50;4.93;;;2.83;;
46777;SDS011;32536;47.128;8.746;2022-12-13T16:38:19;6.35;;;4.60;;
46777;SDS011;32536;47.128;8.746;2022-12-13T16:40:46;6.65;;;3.83;;
46777;SDS011;32536;47.128;8.746;2022-12-13T16:43:17;5.90;;;4.50;;
46777;SDS011;32536;47.128;8.746;2022-12-13T16:45:49;5.80;;;3.95;;
46777;SDS011;32536;47.128;8.746;2022-12-13T16:48:18;6.32;;;3.90;;
46777;SDS011;32536;47.128;8.746;2022-12-13T16:50:46;5.63;;;3.42;;
46777;SDS011;32536;47.128;8.746;2022-12-13T16:53:15;6.55;;;4.70;;
46777;SDS011;32536;47.128;8.746;2022-12-13T16:55:43;6.88;;;4.47;;
46777;SDS011;32536;47.128;8.746;2022-12-13T16:58:11;6.20;;;2.90;;
46777;SDS011;32536;47.128;8.746;2022-12-13T17:00:40;8.00;;;4.70;;
46777;SDS011;32536;47.128;8.746;2022-12-13T17:03:10;7.60;;;4.68;;
46777;SDS011;32536;47.128;8.746;2022-12-13T17:05:39;5.65;;;3.08;;
46777;SDS011;32536;47.128;8.746;2022-12-13T17:08:11;5.45;;;3.63;;
46777;SDS011;32536;47.128;8.746;2022-12-13T17:10:42;3.88;;;2.28;;
46777;SDS011;32536;47.128;8.746;2022-12-13T17:13:10;4.68;;;2.78;;
46777;SDS011;32536;47.128;8.746;2022-12-13T17:15:37;4.07;;;3.35;;
46777;SDS011;32536;47.128;8.746;2022-12-13T17:18:04;6.45;;;3.92;;
46777;SDS011;32536;47.128;8.746;2022-12-13T17:20:31;6.40;;;4.75;;
46777;SDS011;32536;47.128;8.746;2022-12-13T17:22:57;5.55;;;2.80;;
46777;SDS011;32536;47.128;8.746;2022-12-13T17:25:26;6.05;;;4.22;;
46777;SDS011;32536;47.128;8.746;2022-12-13T17:27:53;7.25;;;3.60;;
46777;SDS011;32536;47.128;8.746;2022-12-13T17:30:19;6.57;;;3.40;;
46777;SDS011;32536;47.128;8.746;2022-12-13T17:32:46;7.50;;;4.72;;
46777;SDS011;32536;47.128;8.746;2022-12-13T17:35:13;8.13;;;4.45;;
46777;SDS011;32536;47.128;8.746;2022-12-13T17:37:41;6.00;;;3.55;;
46777;SDS011;32536;47.128;8.746;2022-12-13T17:40:08;4.40;;;2.60;;
46777;SDS011;32536;47.128;8.746;2022-12-13T17:42:35;5.95;;;4.32;;
46777;SDS011;32536;47.128;8.746;2022-12-13T17:45:02;4.53;;;3.55;;
46777;SDS011;32536;47.128;8.746;2022-12-13T17:47:29;6.47;;;3.67;;
46777;SDS011;32536;47.128;8.746;2022-12-13T17:49:56;3.92;;;2.45;;
46777;SDS011;32536;47.128;8.746;2022-12-13T17:52:23;7.47;;;4.13;;
46777;SDS011;32536;47.128;8.746;2022-12-13T17:54:49;6.03;;;3.13;;
46777;SDS011;32536;47.128;8.746;2022-12-13T17:57:16;5.50;;;4.43;;